Terminal Aerodrome Forecast
Issued by NWS Cleveland, OH

Home | Current Version | Previous Version | Text Only | Print | Product List | Glossary Off
Versions: 1 2 3 4 5 6 7 8 9 10 11 12 13 14 15 16 17 18 19 20 21 22 23 24 25 26

206
FTUS41 KCLE 201358 AAA
TAFCAK
TAF AMD
KCAK 201358Z 2014/2112 14011KT 3SM -RA BR OVC020
      TEMPO 2014/2016 2SM -RA BR OVC008
     FM201600 18010KT 3SM BR OVC005
     FM202300 20006KT P6SM OVC010
     FM210400 20004KT 3SM BR OVC005=

USA.gov is the U.S. government's official web portal to all federal, state and local government web resources and services.